createdAt,value
2019-03-13T00:01:23.887Z,83.68
2019-03-13T00:03:54.314Z,83.55
2019-03-13T00:06:24.455Z,83.43
2019-03-13T00:08:54.661Z,83.39
2019-03-13T00:11:24.854Z,83.38
2019-03-13T00:13:55.058Z,83.47
2019-03-13T00:16:25.242Z,83.57
2019-03-13T00:18:55.293Z,83.61
2019-03-13T00:21:25.454Z,83.61
2019-03-13T00:23:55.778Z,83.55
2019-03-13T00:26:25.918Z,83.37
2019-03-13T00:28:56.189Z,83.33
2019-03-13T00:31:26.397Z,83.34
2019-03-13T00:33:56.609Z,83.23
2019-03-13T00:36:26.835Z,83.15
2019-03-13T00:38:56.947Z,83.07
2019-03-13T00:41:27.228Z,83.01
2019-03-13T00:43:57.292Z,82.95
2019-03-13T00:46:27.450Z,82.92
2019-03-13T00:48:57.712Z,82.97
2019-03-13T00:51:27.913Z,82.92
2019-03-13T00:53:58.298Z,82.80
2019-03-13T00:56:28.356Z,82.68
2019-03-13T00:58:58.487Z,82.55
2019-03-13T01:01:46.498Z,82.47
2019-03-13T01:04:35.514Z,82.37
2019-03-13T01:07:09.073Z,82.29
2019-03-13T01:09:39.304Z,82.20
2019-03-13T01:12:09.623Z,82.14
2019-03-13T01:14:39.863Z,82.09
2019-03-13T01:17:10.109Z,82.05
2019-03-13T01:19:40.272Z,82.00
2019-03-13T01:22:10.595Z,82.01
2019-03-13T01:24:40.754Z,81.97
2019-03-13T01:27:11.022Z,81.96
2019-03-13T01:29:41.182Z,81.97
2019-03-13T01:32:31.827Z,81.93
2019-03-13T01:35:06.558Z,81.80
2019-03-13T01:37:37.182Z,81.77
2019-03-13T01:40:09.214Z,81.64
2019-03-13T01:42:39.399Z,81.56
2019-03-13T01:45:11.032Z,81.50
2019-03-13T01:47:41.277Z,81.45
2019-03-13T01:50:11.577Z,81.41
2019-03-13T01:52:41.791Z,81.37
2019-03-13T01:55:12.072Z,81.34
2019-03-13T01:57:42.152Z,81.29
2019-03-13T02:00:13.115Z,81.24
2019-03-13T02:02:43.329Z,81.14
2019-03-13T02:05:13.688Z,81.13
2019-03-13T02:07:43.978Z,81.08
2019-03-13T02:10:14.374Z,81.05
2019-03-13T02:12:44.665Z,81.01
2019-03-13T02:15:16.369Z,80.99
2019-03-13T02:17:46.570Z,80.94
2019-03-13T02:20:16.960Z,80.92
2019-03-13T02:22:47.203Z,80.84
2019-03-13T02:25:18.473Z,80.79
2019-03-13T02:27:48.777Z,80.72
2019-03-13T02:30:20.044Z,80.66
2019-03-13T02:32:50.615Z,80.60
2019-03-13T02:35:20.937Z,80.53
2019-03-13T02:37:50.996Z,80.46
2019-03-13T02:40:21.135Z,80.28
2019-03-13T02:42:51.217Z,80.27
2019-03-13T02:45:25.878Z,80.23
2019-03-13T02:47:55.980Z,80.18
2019-03-13T02:50:26.152Z,80.11
2019-03-13T02:52:56.377Z,80.07
2019-03-13T02:55:26.614Z,80.07
2019-03-13T02:57:56.886Z,80.13
2019-03-13T03:00:42.433Z,80.21
2019-03-13T03:03:22.071Z,80.41
2019-03-13T03:05:52.379Z,80.65
2019-03-13T03:08:22.560Z,81.00
2019-03-13T03:10:52.694Z,81.24
2019-03-13T03:13:22.945Z,81.39
2019-03-13T03:15:53.111Z,81.58
2019-03-13T03:18:23.547Z,81.76
2019-03-13T03:20:53.823Z,81.90
2019-03-13T03:23:24.037Z,81.99
2019-03-13T03:25:54.439Z,82.04
2019-03-13T03:28:24.599Z,82.13
2019-03-13T03:30:54.777Z,82.27
2019-03-13T03:33:25.110Z,82.25
2019-03-13T03:35:55.409Z,82.32
2019-03-13T03:38:26.105Z,82.39
2019-03-13T03:40:56.500Z,82.44
2019-03-13T03:43:39.358Z,82.51
2019-03-13T03:45:58.660Z,82.47
2019-03-13T03:48:28.911Z,82.51
2019-03-13T03:50:59.285Z,82.53
2019-03-13T03:53:42.288Z,82.64
2019-03-13T03:56:19.311Z,82.70
2019-03-13T03:58:49.489Z,82.66
2019-03-13T04:01:19.627Z,82.59
2019-03-13T04:03:50.051Z,82.58
2019-03-13T04:06:20.422Z,82.51
2019-03-13T04:08:50.700Z,82.58
2019-03-13T04:11:20.951Z,82.58
2019-03-13T04:13:51.316Z,82.71
2019-03-13T04:16:21.801Z,82.71
2019-03-13T04:18:52.251Z,82.74
2019-03-13T04:21:22.694Z,82.81
2019-03-13T04:23:53.035Z,82.85
2019-03-13T04:26:23.646Z,82.89
2019-03-13T04:28:54.021Z,82.96
2019-03-13T04:31:24.401Z,83.00
2019-03-13T04:33:54.798Z,83.12
2019-03-13T04:36:25.223Z,83.14
2019-03-13T04:38:55.529Z,83.22
2019-03-13T04:41:25.868Z,83.26
2019-03-13T04:43:56.147Z,83.37
2019-03-13T04:46:26.506Z,83.40
2019-03-13T04:48:56.801Z,83.46
2019-03-13T04:51:27.231Z,83.50
2019-03-13T04:53:57.514Z,83.58
2019-03-13T04:56:27.845Z,83.53
2019-03-13T04:58:58.150Z,83.63
2019-03-13T05:01:28.539Z,83.65
2019-03-13T05:03:58.764Z,83.74
2019-03-13T05:06:28.932Z,83.73
2019-03-13T05:09:18.853Z,83.79
2019-03-13T05:11:48.967Z,83.82
2019-03-13T05:14:19.194Z,83.86
2019-03-13T05:16:49.340Z,83.97
2019-03-13T05:19:19.949Z,84.01
2019-03-13T05:21:50.481Z,84.04
2019-03-13T05:24:20.914Z,84.10
2019-03-13T05:26:52.200Z,84.02
2019-03-13T05:29:23.546Z,84.08
2019-03-13T05:31:54.112Z,84.08
2019-03-13T05:34:24.561Z,84.09
2019-03-13T05:36:55.193Z,84.07
2019-03-13T05:39:25.667Z,84.10
2019-03-13T05:41:56.146Z,84.10
2019-03-13T05:44:26.601Z,84.05
2019-03-13T05:46:57.084Z,84.07
2019-03-13T05:49:27.521Z,84.19
2019-03-13T05:51:58.015Z,84.16
2019-03-13T05:54:28.483Z,84.21
2019-03-13T05:56:59.052Z,84.21
2019-03-13T05:59:29.408Z,84.20
2019-03-13T06:01:59.884Z,84.20
2019-03-13T06:04:30.279Z,84.25
2019-03-13T06:07:00.556Z,84.26
2019-03-13T06:09:31.352Z,84.24
2019-03-13T06:12:01.723Z,84.29
2019-03-13T06:14:32.136Z,84.29
2019-03-13T06:17:02.511Z,84.33
2019-03-13T06:19:32.943Z,84.41
2019-03-13T06:22:03.508Z,84.37
2019-03-13T06:24:33.908Z,84.32
2019-03-13T06:27:04.314Z,84.41
2019-03-13T06:29:34.663Z,84.59
2019-03-13T06:32:05.086Z,84.63
2019-03-13T06:34:35.617Z,84.57
2019-03-13T06:37:07.378Z,84.58
2019-03-13T06:39:37.805Z,84.52
2019-03-13T06:42:08.250Z,84.53
2019-03-13T06:44:38.763Z,84.62
2019-03-13T06:47:09.194Z,84.68
2019-03-13T06:49:39.625Z,84.71
2019-03-13T06:52:10.142Z,84.74
2019-03-13T06:57:09.588Z,84.84
2019-03-13T06:59:57.402Z,84.89
2019-03-13T07:02:44.110Z,84.86
2019-03-13T07:05:24.940Z,84.94
2019-03-13T07:08:20.208Z,84.92
2019-03-13T07:10:56.562Z,85.00
2019-03-13T07:13:45.696Z,85.09
2019-03-13T07:16:34.735Z,85.08
2019-03-13T07:19:28.695Z,84.89
2019-03-13T07:22:30.012Z,84.95
2019-03-13T07:25:07.718Z,84.96
2019-03-13T07:27:56.824Z,85.09
2019-03-13T07:30:42.313Z,85.18
2019-03-13T07:33:37.003Z,85.18
2019-03-13T07:36:35.318Z,85.23
2019-03-13T07:39:32.506Z,85.24
2019-03-13T07:42:22.294Z,85.44
2019-03-13T07:45:11.362Z,85.50
2019-03-13T07:47:50.640Z,85.50
2019-03-13T07:50:30.824Z,85.67
2019-03-13T07:53:18.472Z,85.79
2019-03-13T07:56:16.406Z,85.76
2019-03-13T07:59:08.680Z,85.92
2019-03-13T08:01:48.798Z,85.98
2019-03-13T08:04:33.243Z,85.77
2019-03-13T08:07:28.699Z,85.80
2019-03-13T08:10:24.191Z,85.76
2019-03-13T08:13:13.358Z,85.85
2019-03-13T08:15:49.332Z,85.95
2019-03-13T08:18:41.353Z,85.95
2019-03-13T08:21:30.488Z,86.00
2019-03-13T08:24:13.073Z,86.22
2019-03-13T08:26:57.546Z,86.17
2019-03-13T08:29:45.354Z,86.07
2019-03-13T08:32:28.306Z,86.12
2019-03-13T08:35:15.958Z,86.14
2019-03-13T08:38:06.924Z,86.11
2019-03-13T08:41:02.533Z,86.08
2019-03-13T08:43:41.120Z,86.08
2019-03-13T08:46:23.657Z,86.12
2019-03-13T08:49:21.215Z,86.12
2019-03-13T08:52:08.806Z,86.23
2019-03-13T08:54:53.919Z,86.10
2019-03-13T08:57:38.340Z,86.12
2019-03-13T09:00:35.654Z,86.21
2019-03-13T09:03:15.186Z,86.31
2019-03-13T09:06:13.430Z,86.20
2019-03-13T09:09:01.496Z,86.17
2019-03-13T09:12:02.908Z,86.33
2019-03-13T09:14:42.794Z,86.45
2019-03-13T09:17:31.661Z,86.56
2019-03-13T09:20:15.517Z,86.60
2019-03-13T09:22:58.543Z,86.67
2019-03-13T09:25:47.151Z,86.67
2019-03-13T09:28:36.275Z,86.57
2019-03-13T09:31:28.915Z,86.53
2019-03-13T09:34:18.093Z,86.58
2019-03-13T09:37:18.304Z,86.54
2019-03-13T09:39:59.558Z,86.57
2019-03-13T09:42:55.912Z,86.67
2019-03-13T09:45:49.503Z,86.62
2019-03-13T09:48:26.821Z,86.67
2019-03-13T09:51:15.364Z,86.64
2019-03-13T09:53:54.491Z,86.70
2019-03-13T09:56:38.158Z,86.79
2019-03-13T09:59:42.326Z,86.68
2019-03-13T10:02:30.232Z,86.47
2019-03-13T10:05:19.585Z,86.12
2019-03-13T10:07:55.014Z,85.69
2019-03-13T10:10:42.873Z,85.38
2019-03-13T10:13:37.863Z,85.03
2019-03-13T10:16:33.906Z,84.60
2019-03-13T10:19:16.027Z,84.37
2019-03-13T10:22:08.075Z,84.37
2019-03-13T10:24:55.985Z,84.71
2019-03-13T10:27:33.391Z,84.75
2019-03-13T10:30:29.059Z,85.07
2019-03-13T10:33:17.058Z,85.18
2019-03-13T10:36:12.328Z,85.22
2019-03-13T10:38:52.666Z,85.23
2019-03-13T10:41:54.063Z,85.16
2019-03-13T10:44:36.286Z,85.29
2019-03-13T10:47:13.421Z,85.47
2019-03-13T10:49:52.621Z,85.36
2019-03-13T10:52:47.826Z,85.19
2019-03-13T10:55:30.989Z,85.20
2019-03-13T10:58:23.272Z,85.06
2019-03-13T11:01:04.274Z,84.80
2019-03-13T11:03:59.440Z,83.98
2019-03-13T11:06:54.817Z,83.46
2019-03-13T11:09:43.552Z,83.43
2019-03-13T11:12:44.750Z,83.96
2019-03-13T11:15:21.703Z,84.26
2019-03-13T11:18:19.924Z,84.49
2019-03-13T11:21:15.023Z,84.46
2019-03-13T11:23:52.148Z,84.25
2019-03-13T11:26:28.966Z,83.72
2019-03-13T11:29:13.821Z,83.60
2019-03-13T11:32:07.911Z,83.71
2019-03-13T11:34:56.990Z,83.57
2019-03-13T11:37:57.999Z,83.48
2019-03-13T11:40:47.198Z,83.68
2019-03-13T11:43:41.346Z,83.61
2019-03-13T11:46:26.592Z,83.62
2019-03-13T11:49:27.910Z,83.92
2019-03-13T11:52:06.940Z,84.11
2019-03-13T11:54:44.186Z,84.18
2019-03-13T11:57:42.545Z,84.20
2019-03-13T12:00:38.194Z,84.25
2019-03-13T12:03:24.100Z,84.51
2019-03-13T12:06:01.716Z,84.63
2019-03-13T12:08:50.840Z,84.67
2019-03-13T12:11:33.563Z,84.78
2019-03-13T12:14:21.007Z,84.77
2019-03-13T12:17:08.931Z,84.88
2019-03-13T12:19:56.779Z,84.77
2019-03-13T12:22:53.516Z,84.73
2019-03-13T12:25:42.567Z,84.52
2019-03-13T12:28:33.303Z,84.31
2019-03-13T12:31:22.436Z,83.58
2019-03-13T12:34:14.186Z,82.87
2019-03-13T12:36:57.654Z,82.13
2019-03-13T12:39:49.516Z,82.07
2019-03-13T12:42:53.507Z,82.69
2019-03-13T12:45:31.896Z,83.27
2019-03-13T12:48:27.168Z,83.45
2019-03-13T12:51:02.966Z,83.55
2019-03-13T12:53:57.946Z,84.11
2019-03-13T12:56:46.961Z,84.48
2019-03-13T12:59:34.617Z,84.63
2019-03-13T13:02:22.315Z,84.67
2019-03-13T13:05:21.953Z,84.77
2019-03-13T13:08:04.893Z,84.76
2019-03-13T13:10:44.981Z,84.66
2019-03-13T13:13:27.579Z,84.40
2019-03-13T13:16:22.689Z,84.14
2019-03-13T13:18:51.964Z,83.19
2019-03-13T13:21:22.861Z,82.25
2019-03-13T13:23:53.103Z,81.66
2019-03-13T13:26:23.387Z,81.49
2019-03-13T13:28:53.680Z,80.87
2019-03-13T13:31:23.901Z,80.46
2019-03-13T13:33:54.087Z,80.26
2019-03-13T13:36:26.762Z,79.90
2019-03-13T13:38:56.206Z,79.71
2019-03-13T13:41:26.356Z,79.31
2019-03-13T13:43:56.863Z,79.12
2019-03-13T13:46:33.405Z,79.16
2019-03-13T13:49:04.559Z,79.03
2019-03-13T13:51:34.990Z,79.04
2019-03-13T13:54:05.643Z,78.83
2019-03-13T13:56:36.340Z,78.14
2019-03-13T13:59:07.582Z,77.88
2019-03-13T14:01:38.060Z,77.64
2019-03-13T14:04:08.822Z,77.04
2019-03-13T14:06:39.261Z,76.61
2019-03-13T14:09:09.801Z,76.81
2019-03-13T14:11:40.190Z,78.22
2019-03-13T14:14:10.567Z,79.10
2019-03-13T14:16:40.999Z,79.58
2019-03-13T14:19:11.507Z,79.47
2019-03-13T14:21:42.032Z,79.37
2019-03-13T14:26:46.589Z,79.23
2019-03-13T14:29:18.042Z,79.94
2019-03-13T14:31:48.637Z,79.82
2019-03-13T14:34:19.072Z,79.72
2019-03-13T14:36:49.657Z,79.13
2019-03-13T14:39:20.032Z,78.62
2019-03-13T14:41:50.506Z,78.53
2019-03-13T14:44:20.919Z,78.58
2019-03-13T14:46:51.424Z,78.37
2019-03-13T14:49:22.016Z,78.22
2019-03-13T14:51:52.411Z,77.81
2019-03-13T14:54:22.832Z,78.58
2019-03-13T14:56:53.336Z,79.04
2019-03-13T15:01:52.134Z,78.57
2019-03-13T15:04:25.540Z,78.17
2019-03-13T15:06:56.064Z,77.94
2019-03-13T15:09:26.489Z,77.72
2019-03-13T15:11:56.909Z,77.56
2019-03-13T15:14:27.334Z,77.48
2019-03-13T15:16:57.782Z,77.32
2019-03-13T15:19:28.238Z,77.62
2019-03-13T15:21:58.721Z,77.91
2019-03-13T15:24:29.134Z,78.59
2019-03-13T15:26:59.553Z,79.27
2019-03-13T15:29:30.015Z,79.56
2019-03-13T15:32:01.529Z,79.90
2019-03-13T15:34:32.084Z,80.16
2019-03-13T15:37:02.614Z,80.43
2019-03-13T15:39:33.080Z,80.94
2019-03-13T15:42:03.585Z,81.40
2019-03-13T15:44:33.995Z,81.95
2019-03-13T15:47:04.457Z,82.43
2019-03-13T15:49:34.923Z,82.50
2019-03-13T15:52:05.404Z,83.09
2019-03-13T15:54:35.960Z,83.33
2019-03-13T15:57:07.183Z,83.54
2019-03-13T15:59:37.649Z,83.82
2019-03-13T16:02:08.107Z,84.02
2019-03-13T16:04:38.573Z,84.21
2019-03-13T16:07:09.168Z,84.39
2019-03-13T16:09:39.727Z,84.34
2019-03-13T16:12:10.222Z,84.51
2019-03-13T16:14:40.628Z,84.18
2019-03-13T16:17:11.275Z,84.42
2019-03-13T16:19:41.784Z,84.59
2019-03-13T16:22:13.811Z,84.85
2019-03-13T16:24:44.301Z,84.90
2019-03-13T16:27:14.743Z,84.91
2019-03-13T16:29:45.255Z,84.87
2019-03-13T16:32:17.623Z,84.87
2019-03-13T16:34:48.182Z,85.04
2019-03-13T16:37:18.621Z,85.10
2019-03-13T16:39:49.109Z,85.12
2019-03-13T16:42:19.515Z,85.15
2019-03-13T16:44:49.937Z,85.28
2019-03-13T16:47:20.485Z,85.30
2019-03-13T16:49:50.901Z,85.37
2019-03-13T16:52:21.210Z,85.32
2019-03-13T16:54:53.023Z,85.47
2019-03-13T16:57:23.254Z,85.53
2019-03-13T17:00:00.617Z,85.54
2019-03-13T17:02:25.461Z,85.60
2019-03-13T17:04:55.667Z,85.66
2019-03-13T17:07:25.898Z,85.68
2019-03-13T17:09:56.019Z,85.62
2019-03-13T17:12:26.157Z,85.75
2019-03-13T17:14:56.359Z,85.78
2019-03-13T17:17:26.558Z,85.79
2019-03-13T17:19:56.741Z,85.85
2019-03-13T17:22:26.926Z,85.92
2019-03-13T17:24:57.066Z,85.96
2019-03-13T17:27:27.108Z,86.00
2019-03-13T17:29:57.511Z,86.00
2019-03-13T17:32:27.649Z,86.08
2019-03-13T17:34:57.789Z,86.03
2019-03-13T17:37:27.910Z,85.87
2019-03-13T17:39:58.037Z,85.69
2019-03-13T17:42:28.223Z,85.48
2019-03-13T17:44:58.425Z,85.37
2019-03-13T17:47:29.157Z,85.24
2019-03-13T17:49:59.350Z,85.10
2019-03-13T17:52:29.555Z,84.99
2019-03-13T17:54:59.753Z,84.85
2019-03-13T17:57:30.190Z,84.73
2019-03-13T18:00:00.593Z,84.64
2019-03-13T18:02:35.888Z,84.67
2019-03-13T18:05:07.478Z,84.90
2019-03-13T18:07:37.548Z,85.08
2019-03-13T18:10:10.734Z,85.21
2019-03-13T18:12:40.838Z,85.23
2019-03-13T18:15:11.903Z,85.20
2019-03-13T18:17:42.490Z,85.21
2019-03-13T18:20:15.488Z,85.31
2019-03-13T18:22:45.987Z,85.39
2019-03-13T18:25:18.269Z,85.36
2019-03-13T18:27:49.249Z,85.46
2019-03-13T18:30:22.609Z,85.62
2019-03-13T18:32:53.094Z,85.79
2019-03-13T18:35:23.933Z,85.74
2019-03-13T18:37:54.574Z,85.65
2019-03-13T18:40:25.253Z,85.49
2019-03-13T18:42:58.539Z,85.38
2019-03-13T18:45:29.065Z,85.37
2019-03-13T18:47:59.711Z,85.28
2019-03-13T18:50:30.359Z,85.26
2019-03-13T18:53:01.010Z,85.19
2019-03-13T18:55:31.442Z,85.12
2019-03-13T18:58:02.019Z,85.09
2019-03-13T19:00:33.397Z,85.09
2019-03-13T19:03:03.831Z,85.16
2019-03-13T19:05:34.802Z,85.25
2019-03-13T19:08:05.510Z,85.27
2019-03-13T19:10:36.127Z,85.43
2019-03-13T19:13:07.413Z,85.62
2019-03-13T19:15:40.202Z,85.76
2019-03-13T19:18:10.011Z,85.74
2019-03-13T19:20:40.586Z,85.80
2019-03-13T19:23:14.103Z,85.82
2019-03-13T19:25:43.344Z,85.86
2019-03-13T19:28:13.838Z,85.80
2019-03-13T19:30:44.341Z,85.70
2019-03-13T19:33:14.830Z,85.62
2019-03-13T19:35:45.452Z,85.58
2019-03-13T19:38:15.994Z,85.47
2019-03-13T19:40:46.520Z,85.43
2019-03-13T19:45:48.318Z,85.07
2019-03-13T19:48:18.740Z,84.88
2019-03-13T19:50:49.173Z,84.52
2019-03-13T19:53:19.598Z,84.40
2019-03-13T19:55:50.137Z,84.35
2019-03-13T19:58:20.654Z,84.28
2019-03-13T20:00:51.065Z,84.33
2019-03-13T20:03:22.084Z,84.35
2019-03-13T20:05:53.390Z,84.33
2019-03-13T20:08:25.493Z,84.34
2019-03-13T20:10:58.061Z,84.45
2019-03-13T20:13:28.393Z,84.61
2019-03-13T20:15:58.969Z,84.78
2019-03-13T20:18:29.386Z,85.05
2019-03-13T20:21:02.181Z,85.38
2019-03-13T20:23:33.724Z,85.54
2019-03-13T20:26:16.945Z,85.69
2019-03-13T20:28:58.534Z,85.61
2019-03-13T20:31:44.360Z,85.68
2019-03-13T20:34:27.298Z,85.68
2019-03-13T20:37:01.438Z,85.52
2019-03-13T20:39:32.357Z,85.34
2019-03-13T20:42:03.330Z,85.21
2019-03-13T20:44:34.752Z,85.07
2019-03-13T20:47:07.480Z,84.91
2019-03-13T20:49:40.623Z,84.76
2019-03-13T20:52:11.989Z,84.60
2019-03-13T20:54:42.425Z,84.44
2019-03-13T20:57:12.966Z,84.32
2019-03-13T20:59:43.395Z,84.20
2019-03-13T21:02:14.612Z,84.09
2019-03-13T21:04:45.382Z,84.05
2019-03-13T21:07:15.892Z,84.04
2019-03-13T21:09:46.672Z,83.99
2019-03-13T21:12:17.583Z,84.00
2019-03-13T21:14:48.201Z,83.95
2019-03-13T21:17:18.660Z,83.97
2019-03-13T21:19:49.258Z,84.02
2019-03-13T21:22:21.821Z,84.00
2019-03-13T21:24:52.258Z,83.94
2019-03-13T21:27:25.283Z,83.98
2019-03-13T21:29:58.067Z,83.88
2019-03-13T21:35:09.926Z,83.71
2019-03-13T21:37:43.086Z,83.66
2019-03-13T21:40:16.817Z,83.64
2019-03-13T21:42:54.431Z,83.60
2019-03-13T21:45:40.490Z,83.54
2019-03-13T21:48:08.226Z,83.69
2019-03-13T21:53:21.997Z,84.13
2019-03-13T21:55:56.125Z,84.22
2019-03-13T21:58:31.922Z,84.30
2019-03-13T22:01:19.305Z,84.32
2019-03-13T22:03:56.532Z,84.32
2019-03-13T22:06:36.657Z,84.30
2019-03-13T22:09:11.817Z,84.25
2019-03-13T22:11:51.632Z,84.25
2019-03-13T22:14:26.508Z,84.19
2019-03-13T22:17:01.742Z,84.12
2019-03-13T22:19:39.473Z,84.10
2019-03-13T22:22:24.159Z,84.08
2019-03-13T22:24:59.293Z,84.02
2019-03-13T22:27:37.084Z,83.96
2019-03-13T22:30:15.057Z,83.88
2019-03-13T22:32:53.684Z,83.73
2019-03-13T22:35:30.609Z,83.63
2019-03-13T22:38:07.753Z,83.61
2019-03-13T22:43:06.280Z,83.51
2019-03-13T22:45:39.097Z,83.35
2019-03-13T22:48:12.281Z,83.26
2019-03-13T22:53:23.148Z,83.04
2019-03-13T22:55:53.292Z,83.01
2019-03-13T22:58:26.527Z,83.14
2019-03-13T23:01:15.762Z,83.29
2019-03-13T23:03:47.832Z,83.33
2019-03-13T23:06:20.980Z,83.28
2019-03-13T23:08:53.887Z,83.15
2019-03-13T23:11:26.830Z,83.02
2019-03-13T23:13:59.616Z,83.00
2019-03-13T23:16:34.156Z,83.04
2019-03-13T23:19:07.300Z,83.15
2019-03-13T23:21:40.087Z,83.28
2019-03-13T23:24:13.033Z,83.21
2019-03-13T23:26:46.072Z,83.01
2019-03-13T23:29:18.957Z,82.98
2019-03-13T23:31:51.618Z,83.00
2019-03-13T23:34:24.628Z,82.93
2019-03-13T23:36:54.823Z,82.98
2019-03-13T23:39:24.959Z,82.96
2019-03-13T23:41:55.386Z,83.00
2019-03-13T23:44:25.496Z,83.02
2019-03-13T23:46:55.765Z,83.04
2019-03-13T23:49:25.778Z,83.03
2019-03-13T23:51:55.829Z,83.04
2019-03-13T23:54:25.904Z,83.04
2019-03-13T23:56:55.944Z,83.02
2019-03-13T23:59:26.004Z,82.99
